Time;durP1;ratioP1;P1;durP2;ratioP2;P2;SDS_P1;SDS_P2;PMS_P1;PMS_P2;Temp;Humidity;BMP_temperature;BMP_pressure;BME280_temperature;BME280_humidity;BME280_pressure;Samples;Min_cycle;Max_cycle;Signal;HPM_P1;HPM_P2
2022/06/26 00:02:01;;;;;;;7.30;5.57;;;;;;;17.91;nan;100342.84;4950575;29;20359;-69
2022/06/26 00:04:27;;;;;;;11.10;5.55;;;;;;;17.90;nan;100341.22;4935539;29;20047;-70
2022/06/26 00:06:52;;;;;;;10.95;5.47;;;;;;;17.87;nan;100333.78;4950883;29;20473;-67
2022/06/26 00:09:17;;;;;;;8.70;5.45;;;;;;;17.85;nan;100341.25;4949979;29;20038;-69
2022/06/26 00:11:43;;;;;;;13.50;5.82;;;;;;;;;;4953334;29;20023;-69
2022/06/26 00:14:09;;;;;;;10.38;5.30;;;;;;;17.79;nan;100371.59;4948807;29;20397;-68
2022/06/26 00:16:34;;;;;;;8.90;5.70;;;;;;;17.76;nan;100330.34;4953245;29;20039;-68
2022/06/26 00:18:59;;;;;;;10.63;5.53;;;;;;;17.72;nan;100357.78;4949834;29;20694;-67
2022/06/26 00:21:25;;;;;;;12.90;5.82;;;;;;;;;;4951658;28;20042;-68
2022/06/26 00:23:51;;;;;;;10.40;5.43;;;;;;;17.69;nan;100321.84;4951277;29;20032;-68
2022/06/26 00:26:17;;;;;;;11.07;5.68;;;;;;;;;;4952725;29;20031;-69
2022/06/26 00:28:42;;;;;;;9.23;5.72;;;;;;;;;;4949619;29;20516;-68
2022/06/26 00:31:07;;;;;;;8.50;5.73;;;;;;;;;;4950999;29;20039;-68
2022/06/26 00:33:33;;;;;;;9.55;5.63;;;;;;;17.57;nan;100338.16;4949800;29;20751;-68
2022/06/26 00:35:58;;;;;;;10.77;5.88;;;;;;;;;;4951441;29;20543;-68
2022/06/26 00:38:23;;;;;;;11.63;5.73;;;;;;;;;;4933478;29;20047;-68
2022/06/26 00:40:48;;;;;;;12.47;5.80;;;;;;;;;;4952067;29;20265;-68
2022/06/26 00:43:14;;;;;;;11.93;5.80;;;;;;;;;;4948975;29;20300;-69
2022/06/26 00:45:39;;;;;;;11.07;6.10;;;;;;;;;;4949082;29;20265;-68
2022/06/26 00:48:04;;;;;;;12.02;6.03;;;;;;;;;;4952999;29;20115;-69
2022/06/26 00:50:30;;;;;;;13.88;5.90;;;;;;;;;;4948624;29;20051;-68
2022/06/26 00:52:56;;;;;;;11.48;5.68;;;;;;;;;;4935418;29;20043;-68
2022/06/26 00:55:22;;;;;;;12.68;6.00;;;;;;;;;;4949373;29;20077;-68
2022/06/26 00:57:47;;;;;;;13.00;5.60;;;;;;;;;;4952408;29;20035;-69
2022/06/26 01:00:14;;;;;;;13.13;6.05;;;;;;;17.40;nan;100340.34;4948787;29;20039;-69
2022/06/26 01:02:40;;;;;;;10.68;5.75;;;;;;;17.39;nan;100395.47;4950371;29;20073;-68
2022/06/26 01:05:06;;;;;;;12.45;5.68;;;;;;;;;;4951650;29;20129;-69
2022/06/26 01:07:32;;;;;;;9.80;6.00;;;;;;;;;;4952414;29;20118;-68
2022/06/26 01:09:57;;;;;;;10.32;6.35;;;;;;;;;;4950531;29;20039;-67
2022/06/26 01:12:23;;;;;;;11.07;6.50;;;;;;;;;;4951660;28;20036;-68
2022/06/26 01:14:49;;;;;;;11.38;6.65;;;;;;;;;;4956476;29;20039;-68
2022/06/26 01:17:14;;;;;;;9.20;6.05;;;;;;;;;;4956296;29;20375;-68
2022/06/26 01:19:40;;;;;;;11.15;6.60;;;;;;;;;;4954030;29;20039;-68
2022/06/26 01:22:05;;;;;;;9.65;6.25;;;;;;;;;;4953025;29;20236;-68
2022/06/26 01:24:30;;;;;;;12.57;6.72;;;;;;;17.27;nan;100405.59;4954172;29;20142;-69
2022/06/26 01:26:56;;;;;;;13.80;6.97;;;;;;;17.24;nan;100400.81;4956064;29;20366;-69
2022/06/26 01:29:22;;;;;;;10.00;6.72;;;;;;;17.22;nan;100406.41;4956153;29;20031;-68
2022/06/26 01:31:47;;;;;;;12.05;7.00;;;;;;;;;;4955948;29;20032;-69
2022/06/26 01:34:13;;;;;;;13.05;7.05;;;;;;;;;;4955334;29;20035;-68
2022/06/26 01:36:38;;;;;;;12.07;6.60;;;;;;;;;;4951783;29;20456;-68
2022/06/26 01:39:04;;;;;;;12.90;7.07;;;;;;;;;;4955685;29;20035;-69
2022/06/26 01:41:29;;;;;;;10.23;6.90;;;;;;;;;;4937841;29;20504;-68
2022/06/26 01:43:54;;;;;;;13.67;6.37;;;;;;;;;;4955898;29;20493;-69
2022/06/26 01:46:22;;;;;;;11.85;7.63;;;;;;;;;;4955274;29;20035;-68
2022/06/26 01:48:47;;;;;;;17.17;7.10;;;;;;;;;;4955884;29;20163;-69
2022/06/26 01:51:12;;;;;;;18.90;7.13;;;;;;;;;;4955640;29;20517;-69
2022/06/26 01:53:38;;;;;;;10.25;6.32;;;;;;;;;;4955804;29;20337;-68
2022/06/26 01:56:04;;;;;;;13.82;6.95;;;;;;;;;;4951332;29;20117;-69
2022/06/26 01:58:29;;;;;;;12.30;6.80;;;;;;;;;;4955151;29;20058;-69
2022/06/26 02:00:54;;;;;;;14.32;7.22;;;;;;;;;;4955351;29;20035;-69
2022/06/26 02:03:21;;;;;;;11.82;7.43;;;;;;;17.07;nan;100394.97;4954219;29;20031;-69
2022/06/26 02:05:47;;;;;;;16.40;7.93;;;;;;;;;;4955256;29;20031;-69
2022/06/26 02:08:12;;;;;;;9.98;7.20;;;;;;;;;;4955468;29;20045;-69
2022/06/26 02:13:36;;;;;;;11.93;7.07;;;;;;;;;;4955028;29;20273;-70
2022/06/26 02:16:03;;;;;;;12.50;7.63;;;;;;;;;;4951924;29;20039;-69
2022/06/26 02:18:28;;;;;;;15.55;7.68;;;;;;;;;;4954896;29;20035;-69
2022/06/26 02:20:54;;;;;;;16.17;7.90;;;;;;;16.89;nan;100438.88;4951464;29;20477;-69
2022/06/26 02:23:20;;;;;;;13.38;7.07;;;;;;;;;;4951932;28;20470;-68
2022/06/26 02:25:46;;;;;;;12.20;7.40;;;;;;;;;;4937708;29;20043;-69
2022/06/26 02:28:11;;;;;;;11.75;7.28;;;;;;;;;;4954533;29;20039;-69
2022/06/26 02:30:36;;;;;;;10.20;7.60;;;;;;;;;;4954749;29;20035;-69
2022/06/26 02:33:02;;;;;;;11.63;6.95;;;;;;;;;;4954225;29;20039;-69
2022/06/26 02:35:28;;;;;;;15.88;7.70;;;;;;;;;;4954136;29;20039;-69
2022/06/26 02:37:54;;;;;;;14.15;8.10;;;;;;;16.78;nan;100326.34;4954413;29;20039;-69
2022/06/26 02:40:20;;;;;;;10.00;7.40;;;;;;;;;;4954727;29;20042;-68
2022/06/26 02:42:46;;;;;;;12.48;8.15;;;;;;;;;;4953726;29;20031;-69
2022/06/26 02:45:11;;;;;;;12.60;8.00;;;;;;;;;;4954751;29;20065;-69
2022/06/26 02:47:37;;;;;;;14.45;8.45;;;;;;;;;;4954314;29;20027;-69
2022/06/26 02:50:03;;;;;;;12.88;8.13;;;;;;;;;;4953395;28;20541;-68
2022/06/26 02:52:28;;;;;;;13.15;8.40;;;;;;;;;;4954250;29;20494;-69
2022/06/26 02:54:54;;;;;;;12.75;8.57;;;;;;;;;;4952333;29;20082;-69
2022/06/26 02:57:19;;;;;;;17.50;8.30;;;;;;;;;;4950529;28;20066;-68
2022/06/26 02:59:44;;;;;;;12.00;8.50;;;;;;;16.69;nan;100423.66;4952341;29;20110;-69
2022/06/26 03:02:10;;;;;;;14.18;8.18;;;;;;;;;;4954203;29;20293;-69
2022/06/26 03:04:35;;;;;;;12.47;8.63;;;;;;;;;;4951124;29;20511;-68
2022/06/26 03:07:00;;;;;;;15.43;8.87;;;;;;;;;;4950136;29;20265;-68
2022/06/26 03:09:25;;;;;;;13.63;8.00;;;;;;;;;;4952281;29;20265;-69
2022/06/26 03:11:51;;;;;;;15.23;8.63;;;;;;;;;;4953991;29;20031;-69
2022/06/26 03:14:16;;;;;;;14.50;8.50;;;;;;;;;;4954165;29;20266;-68
2022/06/26 03:16:41;;;;;;;15.70;9.23;;;;;;;;;;4952409;29;20027;-68
2022/06/26 03:19:07;;;;;;;12.43;8.73;;;;;;;;;;4954093;29;20035;-69
2022/06/26 03:21:32;;;;;;;12.73;8.15;;;;;;;;;;4953928;29;20019;-69
2022/06/26 03:24:03;;;;;;;11.48;8.40;;;;;;;;;;4954067;29;20035;-69
2022/06/26 03:26:30;;;;;;;16.67;9.43;;;;;;;;;;4953162;29;20027;-69
2022/06/26 03:28:55;;;;;;;17.67;8.82;;;;;;;;;;4953963;29;20039;-69
2022/06/26 03:31:20;;;;;;;17.63;8.10;;;;;;;;;;4952238;29;20031;-69
2022/06/26 03:33:46;;;;;;;14.15;8.43;;;;;;;;;;4952822;28;20050;-69
2022/06/26 03:36:11;;;;;;;12.88;8.48;;;;;;;;;;4953315;29;20142;-69
2022/06/26 03:38:37;;;;;;;13.38;8.20;;;;;;;;;;4950398;29;20109;-68
2022/06/26 03:41:02;;;;;;;13.30;8.50;;;;;;;;;;4952642;29;20370;-69
2022/06/26 03:43:28;;;;;;;13.23;9.23;;;;;;;;;;4952798;28;20046;-68
2022/06/26 03:45:53;;;;;;;16.17;9.33;;;;;;;;;;4953534;29;20043;-68
2022/06/26 03:48:18;;;;;;;12.43;8.37;;;;;;;16.93;nan;100448.72;4952795;28;20343;-69
2022/06/26 03:50:44;;;;;;;14.45;9.27;;;;;;;;;;4951908;29;20269;-68
2022/06/26 03:53:09;;;;;;;12.43;8.80;;;;;;;;;;4952221;29;20075;-69
2022/06/26 03:55:34;;;;;;;13.73;8.25;;;;;;;;;;4951866;29;20305;-68
2022/06/26 03:58:01;;;;;;;16.05;8.93;;;;;;;;;;4952927;29;20042;-69
2022/06/26 04:00:26;;;;;;;14.07;8.35;;;;;;;;;;4950459;29;20027;-68
2022/06/26 04:02:51;;;;;;;14.15;8.70;;;;;;;;;;4950105;29;20078;-68
2022/06/26 04:05:16;;;;;;;13.23;8.37;;;;;;;;;;4950818;29;20393;-68
2022/06/26 04:07:42;;;;;;;13.60;8.13;;;;;;;;;;4953730;29;20265;-67
2022/06/26 04:10:07;;;;;;;12.60;8.43;;;;;;;;;;4951375;29;20249;-67
2022/06/26 04:12:32;;;;;;;14.38;9.80;;;;;;;;;;4951872;29;20297;-69
2022/06/26 04:14:58;;;;;;;1158.67;199.70;;;;;;;;;;4950664;29;20481;-68
2022/06/26 04:17:23;;;;;;;19.23;12.25;;;;;;;;;;4950683;29;20281;-69
2022/06/26 04:19:49;;;;;;;12.27;8.70;;;;;;;;;;4950101;28;20031;-68
2022/06/26 04:22:14;;;;;;;14.32;8.77;;;;;;;;;;4933760;29;20269;-67
2022/06/26 04:24:40;;;;;;;20.87;9.07;;;;;;;17.71;nan;100452.88;4951539;29;20031;-68
2022/06/26 04:27:05;;;;;;;15.02;8.40;;;;;;;;;;4951320;29;20484;-68
2022/06/26 04:29:30;;;;;;;14.05;8.95;;;;;;;;;;4953395;29;20042;-69
2022/06/26 04:31:55;;;;;;;12.67;8.93;;;;;;;;;;4947474;29;20042;-68
2022/06/26 04:34:21;;;;;;;16.13;9.33;;;;;;;;;;4952514;29;20035;-68
2022/06/26 04:36:46;;;;;;;19.33;9.00;;;;;;;;;;4952128;29;20289;-68
2022/06/26 04:39:11;;;;;;;14.87;8.37;;;;;;;;;;4949570;29;20308;-68
2022/06/26 04:41:38;;;;;;;14.80;8.27;;;;;;;;;;4952693;29;20269;-69
2022/06/26 04:44:08;;;;;;;13.07;8.35;;;;;;;;;;4950782;29;20281;-68
2022/06/26 04:46:34;;;;;;;13.18;8.10;;;;;;;;;;4936144;29;20035;-68
2022/06/26 04:49:00;;;;;;;14.70;8.98;;;;;;;;;;4954337;29;20074;-69
2022/06/26 04:51:26;;;;;;;13.90;8.18;;;;;;;18.37;nan;100587.03;4954712;29;20074;-70
2022/06/26 04:53:51;;;;;;;12.00;7.45;;;;;;;;;;4952185;29;20031;-69
2022/06/26 04:56:16;;;;;;;11.93;7.30;;;;;;;18.53;nan;100459.72;4952609;29;20035;-68
2022/06/26 04:58:42;;;;;;;12.40;7.47;;;;;;;18.63;nan;100457.81;4953533;29;20532;-69
2022/06/26 05:01:08;;;;;;;11.90;7.35;;;;;;;18.73;nan;100477.50;4955896;29;20470;-68
2022/06/26 05:03:34;;;;;;;11.30;6.95;;;;;;;18.82;nan;100481.16;4954117;29;20118;-69
2022/06/26 05:05:59;;;;;;;11.77;7.82;;;;;;;18.88;nan;100467.53;4955841;29;20142;-69
2022/06/26 05:08:25;;;;;;;9.52;6.80;;;;;;;18.99;nan;100480.81;4953424;29;20039;-70
2022/06/26 05:10:50;;;;;;;11.23;6.80;;;;;;;19.05;nan;100483.13;4955637;29;20120;-69
2022/06/26 05:13:16;;;;;;;8.63;6.78;;;;;;;19.10;nan;100440.38;4951966;29;20086;-69
2022/06/26 05:15:41;;;;;;;11.55;6.45;;;;;;;19.23;nan;100483.53;4953724;29;20031;-69
2022/06/26 05:18:07;;;;;;;14.55;6.10;;;;;;;19.26;nan;100536.38;4955660;29;20046;-69
2022/06/26 05:20:33;;;;;;;13.27;6.22;;;;;;;19.33;nan;100484.25;4952575;29;20039;-70
2022/06/26 05:22:58;;;;;;;14.88;6.38;;;;;;;19.43;nan;100493.25;4956045;29;20038;-68
2022/06/26 05:25:24;;;;;;;10.00;5.95;;;;;;;19.49;nan;100447.50;4956130;29;20062;-68
2022/06/26 05:27:49;;;;;;;12.55;5.88;;;;;;;19.57;nan;100496.84;4955658;29;20135;-69
2022/06/26 05:30:15;;;;;;;10.52;5.80;;;;;;;19.63;nan;100501.03;4956093;29;20393;-68
2022/06/26 05:32:40;;;;;;;17.52;5.85;;;;;;;19.67;nan;100461.22;4955590;29;20099;-69
2022/06/26 05:35:06;;;;;;;8.48;5.60;;;;;;;19.71;nan;100526.41;4954946;29;20043;-68
2022/06/26 05:37:32;;;;;;;8.95;5.78;;;;;;;19.80;nan;100419.66;4955529;29;20609;-70
2022/06/26 05:39:57;;;;;;;11.27;6.00;;;;;;;19.95;nan;100480.97;4953127;29;20485;-70
2022/06/26 05:42:23;;;;;;;8.00;5.40;;;;;;;20.01;nan;100471.00;4955331;29;20366;-70
2022/06/26 05:44:48;;;;;;;11.23;5.68;;;;;;;;;;4950600;29;20048;-69
2022/06/26 05:47:13;;;;;;;14.13;7.13;;;;;;;20.15;nan;100483.38;4954809;29;20042;-69
2022/06/26 05:49:39;;;;;;;13.07;5.43;;;;;;;20.27;nan;100479.50;4955710;29;20334;-70
2022/06/26 05:52:05;;;;;;;11.20;5.70;;;;;;;20.31;nan;100456.47;4955141;29;20469;-69
2022/06/26 05:54:31;;;;;;;8.07;5.78;;;;;;;;;;4955359;29;20047;-69
2022/06/26 05:56:56;;;;;;;6.72;5.13;;;;;;;20.49;nan;100487.75;4950573;28;20178;-69
2022/06/26 05:59:21;;;;;;;12.48;5.10;;;;;;;20.56;nan;100476.72;4951980;29;20113;-69
2022/06/26 06:01:47;;;;;;;11.05;5.82;;;;;;;20.64;nan;100488.66;4952796;29;20114;-70
2022/06/26 06:04:12;;;;;;;9.95;5.70;;;;;;;20.64;nan;100521.56;4951637;29;20098;-69
2022/06/26 06:06:38;;;;;;;12.32;5.55;;;;;;;20.76;nan;100491.69;4955067;29;20042;-70
2022/06/26 06:09:04;;;;;;;10.02;5.30;;;;;;;20.82;nan;100528.00;4954306;28;20037;-69
2022/06/26 06:11:29;;;;;;;19.35;5.93;;;;;;;20.89;nan;100487.47;4954886;29;20118;-71
2022/06/26 06:13:54;;;;;;;9.52;6.20;;;;;;;20.93;nan;100488.50;4955078;29;20039;-70
2022/06/26 06:16:20;;;;;;;13.27;6.82;;;;;;;21.01;nan;100482.47;4952369;29;20393;-71
2022/06/26 06:18:45;;;;;;;11.07;6.10;;;;;;;21.00;nan;100468.28;4952330;29;20031;-69
2022/06/26 06:21:11;;;;;;;11.63;6.13;;;;;;;21.02;nan;100533.06;4953069;29;20062;-70
2022/06/26 06:23:37;;;;;;;14.63;6.90;;;;;;;21.17;nan;100502.56;4955424;29;20473;-71
2022/06/26 06:26:03;;;;;;;9.55;6.07;;;;;;;21.22;nan;100499.78;4936186;29;20035;-71
2022/06/26 06:28:28;;;;;;;13.05;6.13;;;;;;;21.32;nan;100492.66;4950086;29;20061;-71
2022/06/26 06:30:54;;;;;;;9.98;5.63;;;;;;;21.42;nan;100490.63;4952737;28;20043;-69
2022/06/26 06:33:19;;;;;;;13.85;7.07;;;;;;;21.50;nan;100493.72;4951478;29;20039;-70
2022/06/26 06:35:44;;;;;;;11.40;6.50;;;;;;;21.58;nan;100495.72;4952168;29;20094;-69
2022/06/26 06:38:10;;;;;;;12.18;6.40;;;;;;;21.70;nan;100501.38;4954039;29;20086;-68
2022/06/26 06:40:36;;;;;;;10.35;6.45;;;;;;;;;;4953147;29;20046;-72
2022/06/26 06:43:01;;;;;;;12.07;5.90;;;;;;;21.82;nan;100485.59;4954926;29;20035;-73
2022/06/26 06:45:26;;;;;;;12.27;6.13;;;;;;;;;;4953415;29;20035;-71
2022/06/26 06:47:52;;;;;;;8.57;6.10;;;;;;;22.01;nan;100514.22;4937501;29;20039;-72
2022/06/26 06:50:17;;;;;;;12.05;5.90;;;;;;;22.06;nan;100477.34;4954216;29;20344;-71
2022/06/26 06:52:43;;;;;;;11.43;5.82;;;;;;;22.14;nan;100505.34;4954649;29;20106;-72
2022/06/26 06:55:08;;;;;;;9.98;5.40;;;;;;;22.17;nan;100483.31;4936256;29;20480;-72
2022/06/26 06:57:34;;;;;;;12.05;5.65;;;;;;;;;;4936696;29;20038;-72
2022/06/26 06:59:59;;;;;;;13.27;5.50;;;;;;;22.39;nan;100457.66;4954238;29;20382;-70
2022/06/26 07:02:25;;;;;;;9.65;5.53;;;;;;;22.46;nan;100468.75;4951815;29;20261;-70
2022/06/26 07:04:51;;;;;;;10.95;6.35;;;;;;;22.53;nan;100479.88;4936815;29;20128;-69
2022/06/26 07:07:16;;;;;;;12.05;5.78;;;;;;;22.50;nan;100491.19;4948937;29;20126;-69
2022/06/26 07:09:41;;;;;;;7.88;4.60;;;;;;;22.64;nan;100488.47;4951087;28;20046;-70
2022/06/26 07:12:07;;;;;;;10.05;4.97;;;;;;;;;;4936686;29;20058;-70
2022/06/26 07:14:32;;;;;;;7.25;4.35;;;;;;;;;;4954259;29;20042;-71
2022/06/26 07:16:58;;;;;;;8.07;4.40;;;;;;;22.89;nan;100465.59;4952756;29;20035;-70
2022/06/26 07:19:23;;;;;;;8.43;4.40;;;;;;;22.97;nan;100496.31;4953602;29;20529;-70
2022/06/26 07:21:49;;;;;;;7.93;4.15;;;;;;;22.98;nan;100471.84;4933777;29;20358;-71
2022/06/26 07:24:14;;;;;;;13.25;4.32;;;;;;;22.93;nan;100458.53;4951487;29;20520;-69
2022/06/26 07:26:40;;;;;;;11.88;4.50;;;;;;;23.20;nan;100489.03;4947849;29;20054;-70
2022/06/26 07:29:07;;;;;;;10.40;3.95;;;;;;;23.26;nan;100487.81;4952102;29;20382;-70
2022/06/26 07:31:33;;;;;;;6.20;3.75;;;;;;;23.30;nan;100480.75;4950540;29;20041;-70
2022/06/26 07:34:13;;;;;;;8.02;4.22;;;;;;;23.42;nan;100491.72;4953688;29;20110;-70
2022/06/26 07:36:51;;;;;;;12.30;3.90;;;;;;;23.60;nan;100483.72;4951500;28;20097;-70
2022/06/26 07:39:18;;;;;;;8.23;4.27;;;;;;;23.66;nan;100507.47;4916822;29;20456;-70
2022/06/26 07:41:46;;;;;;;5.80;3.95;;;;;;;23.69;nan;100474.56;4951867;28;20751;-71
2022/06/26 07:44:11;;;;;;;6.47;3.67;;;;;;;23.73;nan;100512.41;4953612;29;20035;-71
2022/06/26 07:46:38;;;;;;;7.10;3.63;;;;;;;23.76;nan;100480.31;4953704;29;20027;-70
2022/06/26 07:49:04;;;;;;;6.43;4.00;;;;;;;23.82;nan;100504.38;4953173;29;20027;-70
2022/06/26 07:51:31;;;;;;;7.53;3.90;;;;;;;23.96;nan;100494.31;4936148;29;20036;-70
2022/06/26 07:53:56;;;;;;;10.27;3.70;;;;;;;24.04;nan;100496.25;4953464;29;20031;-69
2022/06/26 07:56:22;;;;;;;7.97;3.67;;;;;;;24.15;nan;100485.97;4950323;29;20039;-70
2022/06/26 07:58:48;;;;;;;7.10;3.58;;;;;;;24.20;nan;100526.16;4953181;29;20027;-70
2022/06/26 08:01:14;;;;;;;5.22;3.00;;;;;;;24.31;nan;100499.75;4950527;29;20041;-72
2022/06/26 08:03:39;;;;;;;5.22;2.72;;;;;;;24.33;nan;100492.19;4951225;29;20094;-70
2022/06/26 08:06:05;;;;;;;5.75;2.90;;;;;;;24.38;nan;100484.72;4935913;29;20067;-70
2022/06/26 08:08:31;;;;;;;6.28;3.17;;;;;;;24.48;nan;100505.19;4950228;29;20477;-69
2022/06/26 08:10:56;;;;;;;7.35;3.47;;;;;;;24.35;nan;100463.03;4949996;29;20046;-69
2022/06/26 08:13:22;;;;;;;8.90;3.53;;;;;;;24.55;nan;100510.09;4950648;29;20027;-69
2022/06/26 08:15:47;;;;;;;6.53;3.05;;;;;;;;;;4950122;29;20039;-69
2022/06/26 08:18:12;;;;;;;8.23;3.67;;;;;;;24.63;nan;100507.41;4949842;28;20043;-70
2022/06/26 08:20:38;;;;;;;5.28;3.30;;;;;;;24.69;nan;100510.75;4950546;29;20043;-69
2022/06/26 08:23:03;;;;;;;8.73;3.83;;;;;;;24.73;nan;100484.75;4955219;29;20031;-70
2022/06/26 08:25:29;;;;;;;6.25;3.55;;;;;;;24.82;nan;100507.06;4954411;29;20551;-70
2022/06/26 08:27:54;;;;;;;12.70;4.15;;;;;;;24.88;nan;100504.22;4953254;29;20550;-70
2022/06/26 08:30:20;;;;;;;7.50;3.33;;;;;;;24.89;nan;100492.34;4954277;29;20051;-69
2022/06/26 08:32:46;;;;;;;8.63;3.80;;;;;;;24.97;nan;100478.06;4955064;28;20146;-70
2022/06/26 08:35:13;;;;;;;6.03;2.88;;;;;;;25.18;nan;100497.88;4955849;29;20062;-70
2022/06/26 08:37:38;;;;;;;7.82;2.90;;;;;;;25.24;nan;100525.44;4961561;28;20493;-71
2022/06/26 08:40:05;;;;;;;4.88;2.47;;;;;;;25.28;nan;100499.41;4956048;29;20094;-70
2022/06/26 08:42:31;;;;;;;5.50;2.30;;;;;;;;;;4954654;29;20019;-71
2022/06/26 08:44:58;;;;;;;7.43;2.88;;;;;;;25.33;nan;100493.88;4955350;29;20042;-70
2022/06/26 08:47:25;;;;;;;6.32;2.30;;;;;;;25.50;nan;100508.41;4956549;29;20038;-69
2022/06/26 08:49:55;;;;;;;5.90;2.63;;;;;;;25.56;nan;100472.84;4956572;28;20432;-71
2022/06/26 08:52:21;;;;;;;6.35;2.55;;;;;;;25.63;nan;100480.44;4953326;29;20098;-69
2022/06/26 08:54:48;;;;;;;6.00;2.60;;;;;;;25.72;nan;100516.25;4954726;29;20090;-69
2022/06/26 08:57:14;;;;;;;4.70;2.45;;;;;;;;;;4956459;29;20027;-71
2022/06/26 08:59:39;;;;;;;3.80;2.50;;;;;;;25.87;nan;100509.53;4956838;29;20465;-71
2022/06/26 09:02:05;;;;;;;9.63;2.83;;;;;;;25.95;nan;100497.13;4950577;29;20098;-71
2022/06/26 09:04:31;;;;;;;5.53;2.60;;;;;;;25.97;nan;100573.94;4956744;29;20114;-71
2022/06/26 09:06:56;;;;;;;6.68;2.55;;;;;;;26.07;nan;100486.41;4956345;29;20043;-70
2022/06/26 09:09:24;;;;;;;8.93;2.60;;;;;;;26.17;nan;100520.31;4955309;29;20035;-71
2022/06/26 09:11:55;;;;;;;4.32;2.55;;;;;;;26.22;nan;100568.75;4952561;29;20031;-71
2022/06/26 09:14:22;;;;;;;6.75;2.40;;;;;;;26.34;nan;100487.03;4952524;29;20062;-73
2022/06/26 09:16:49;;;;;;;5.93;2.60;;;;;;;26.31;nan;100500.09;4938732;29;20035;-72
2022/06/26 09:19:19;;;;;;;6.45;2.40;;;;;;;26.28;nan;100494.53;4938980;29;20035;-72
2022/06/26 09:21:46;;;;;;;5.03;2.10;;;;;;;26.33;nan;100498.94;4952396;29;20114;-72
2022/06/26 09:24:13;;;;;;;4.65;2.35;;;;;;;26.45;nan;100489.00;4952717;29;20039;-72
2022/06/26 09:26:40;;;;;;;2.17;1.70;;;;;;;26.53;nan;100487.38;4937824;29;20039;-73
2022/06/26 09:29:14;;;;;;;3.13;2.10;;;;;;;26.54;nan;100493.59;4949593;29;20047;-72
2022/06/26 09:31:40;;;;;;;7.25;2.45;;;;;;;26.64;nan;100493.19;4952067;28;20386;-71
2022/06/26 09:34:18;;;;;;;5.15;2.55;;;;;;;26.67;nan;100496.03;4954436;28;20054;-73
2022/06/26 09:36:54;;;;;;;3.30;2.17;;;;;;;26.76;nan;100498.63;4938377;29;20517;-73
2022/06/26 09:39:20;;;;;;;7.25;2.25;;;;;;;26.81;nan;100487.59;4951487;29;20061;-72
2022/06/26 09:41:45;;;;;;;4.72;2.05;;;;;;;26.79;nan;100473.63;4951656;29;20036;-71
2022/06/26 09:44:17;;;;;;;3.90;2.58;;;;;;;26.89;nan;100448.13;4954345;29;20381;-72
2022/06/26 09:46:43;;;;;;;4.80;2.53;;;;;;;26.92;nan;100496.88;4954541;29;20031;-72
2022/06/26 09:49:09;;;;;;;6.35;2.85;;;;;;;26.98;nan;100539.91;4953009;29;20054;-72
2022/06/26 09:51:36;;;;;;;4.32;2.60;;;;;;;27.12;nan;100503.34;4953920;28;20027;-72
2022/06/26 09:54:03;;;;;;;4.25;2.55;;;;;;;27.19;nan;100502.84;4954448;29;20042;-72
2022/06/26 09:56:29;;;;;;;4.07;2.25;;;;;;;27.24;nan;100478.28;4955938;29;20035;-73
2022/06/26 09:58:58;;;;;;;4.07;2.20;;;;;;;27.29;nan;100510.53;4955359;29;20062;-73
2022/06/26 10:06:56;;;;;;;3.92;2.30;;;;;;;27.31;nan;100492.06;4951578;29;20043;-73
2022/06/26 10:09:22;;;;;;;2.60;1.92;;;;;;;27.29;nan;100480.78;4955532;29;20114;-73
2022/06/26 10:11:48;;;;;;;4.47;2.10;;;;;;;27.29;nan;100458.38;4955178;29;20508;-73
2022/06/26 10:14:27;;;;;;;3.67;2.20;;;;;;;27.32;nan;100509.88;4937291;29;20464;-73
2022/06/26 10:16:52;;;;;;;;;;;;;;;27.34;nan;100494.09;4952224;29;20118;-74
2022/06/26 10:19:46;;;;;;;3.67;2.13;;;;;;;27.32;nan;100493.66;4954623;29;20001;-72
2022/06/26 10:22:15;;;;;;;6.00;2.10;;;;;;;27.30;nan;100465.38;4953674;29;20039;-74
2022/06/26 10:24:52;;;;;;;8.13;2.28;;;;;;;27.29;nan;100501.63;4952611;29;20374;-72
2022/06/26 10:27:26;;;;;;;3.53;2.33;;;;;;;27.15;nan;100482.97;4950528;29;20081;-73
2022/06/26 10:30:06;;;;;;;4.28;2.90;;;;;;;27.03;nan;100461.31;4954167;29;20385;-74
2022/06/26 10:32:31;;;;;;;4.38;2.28;;;;;;;27.00;nan;100489.03;4950802;28;20043;-73
2022/06/26 10:34:57;;;;;;;8.18;2.63;;;;;;;26.98;nan;100442.63;4955010;29;20058;-74
2022/06/26 10:37:22;;;;;;;3.13;2.50;;;;;;;26.99;nan;100482.06;4937307;29;20532;-74
2022/06/26 10:39:51;;;;;;;4.13;2.30;;;;;;;26.98;nan;100483.16;4953242;29;20035;-72
2022/06/26 10:45:03;;;;;;;4.75;2.30;;;;;;;27.00;nan;100467.41;4951269;28;20063;-73
2022/06/26 10:47:41;;;;;;;6.18;2.60;;;;;;;27.09;nan;100458.06;4951752;29;20036;-73
2022/06/26 10:50:21;;;;;;;5.07;2.92;;;;;;;27.20;nan;100471.19;4953427;29;20047;-72
2022/06/26 10:52:46;;;;;;;5.85;2.40;;;;;;;27.31;nan;100450.72;4954472;29;20031;-73
2022/06/26 10:55:12;;;;;;;3.55;2.30;;;;;;;27.35;nan;100440.81;4954751;29;20042;-73
2022/06/26 10:57:38;;;;;;;4.53;2.60;;;;;;;27.35;nan;100441.59;4951469;29;20024;-72
2022/06/26 11:00:11;;;;;;;5.75;2.10;;;;;;;27.44;nan;100459.59;4937048;29;20385;-73
2022/06/26 11:02:39;;;;;;;4.57;2.30;;;;;;;27.56;nan;100427.19;4947565;29;20027;-73
2022/06/26 11:05:07;;;;;;;5.57;2.10;;;;;;;27.68;nan;100465.03;4952749;29;20031;-74
2022/06/26 11:07:44;;;;;;;4.13;1.92;;;;;;;27.78;nan;100431.31;4948870;29;20050;-72
2022/06/26 11:10:17;;;;;;;3.55;2.05;;;;;;;27.96;nan;100458.94;4950693;29;20481;-73
2022/06/26 11:12:46;;;;;;;2.83;2.00;;;;;;;27.97;nan;100466.72;4952952;29;20073;-73
2022/06/26 11:15:34;;;;;;;3.50;1.80;;;;;;;27.96;nan;100415.63;4950077;29;20090;-74
2022/06/26 11:18:05;;;;;;;3.67;1.70;;;;;;;27.97;nan;100460.53;4953727;29;20044;-73
2022/06/26 11:20:50;;;;;;;2.95;2.10;;;;;;;28.06;nan;100436.81;4950310;29;20085;-74
2022/06/26 11:23:19;;;;;;;6.72;3.30;;;;;;;28.15;nan;100442.88;4954140;29;20035;-72
2022/06/26 11:25:49;;;;;;;6.68;3.65;;;;;;;28.19;nan;100470.06;4953842;29;20418;-72
2022/06/26 11:28:16;;;;;;;2.58;2.30;;;;;;;28.24;nan;100464.41;4933838;29;20049;-71
2022/06/26 11:30:44;;;;;;;3.28;2.17;;;;;;;28.33;nan;100437.19;4950375;29;20045;-73
2022/06/26 11:33:09;;;;;;;2.92;1.60;;;;;;;28.43;nan;100412.31;4950762;29;20149;-71
2022/06/26 11:35:36;;;;;;;2.42;1.73;;;;;;;28.49;nan;100432.63;4953521;28;20032;-72
2022/06/26 11:38:13;;;;;;;6.78;2.13;;;;;;;28.58;nan;100435.19;4948788;29;20043;-73
2022/06/26 11:40:39;;;;;;;2.75;1.88;;;;;;;28.65;nan;100429.19;4952122;28;20046;-72
2022/06/26 11:43:05;;;;;;;2.85;1.65;;;;;;;28.61;nan;100420.94;4950345;28;20370;-73
2022/06/26 11:45:32;;;;;;;4.88;3.25;;;;;;;28.69;nan;100433.56;4948475;29;20039;-73
2022/06/26 11:47:58;;;;;;;2.45;1.98;;;;;;;28.90;nan;100441.47;4950623;29;20501;-71
2022/06/26 11:50:29;;;;;;;3.33;1.95;;;;;;;29.01;nan;100401.06;4951367;29;20039;-72
2022/06/26 11:52:57;;;;;;;2.42;1.67;;;;;;;29.07;nan;100423.31;4953250;29;20098;-73
2022/06/26 11:55:23;;;;;;;5.50;1.90;;;;;;;29.02;nan;100402.63;4929171;29;20122;-73
2022/06/26 11:57:49;;;;;;;4.15;1.50;;;;;;;29.07;nan;100450.44;4951968;29;20074;-71
2022/06/26 12:00:17;;;;;;;4.43;1.92;;;;;;;28.97;nan;100425.41;4952611;29;20462;-72
2022/06/26 12:02:45;;;;;;;2.40;1.60;;;;;;;28.80;nan;100464.47;4952576;28;20074;-72
2022/06/26 12:05:11;;;;;;;4.63;2.00;;;;;;;28.69;nan;100451.75;4952551;29;20118;-72
2022/06/26 12:07:47;;;;;;;5.18;2.67;;;;;;;28.77;nan;100423.69;4951802;29;20113;-72
2022/06/26 12:10:31;;;;;;;2.40;1.80;;;;;;;28.68;nan;100417.66;4953351;29;20138;-72
2022/06/26 12:12:57;;;;;;;2.72;1.80;;;;;;;28.75;nan;100423.25;4951654;29;20032;-72
2022/06/26 12:15:24;;;;;;;4.63;1.60;;;;;;;28.83;nan;100425.03;4953059;29;20031;-72
2022/06/26 12:18:00;;;;;;;3.55;1.90;;;;;;;28.88;nan;100421.25;4938952;29;20031;-72
2022/06/26 12:20:27;;;;;;;2.20;1.70;;;;;;;29.07;nan;100426.03;4950299;29;20059;-72
2022/06/26 12:22:54;;;;;;;3.28;1.70;;;;;;;29.15;nan;100433.22;4951413;29;20030;-73
2022/06/26 12:25:31;;;;;;;2.30;1.73;;;;;;;29.24;nan;100439.25;4949947;29;20050;-72
2022/06/26 12:27:58;;;;;;;2.75;1.65;;;;;;;29.37;nan;100407.38;4952383;29;20478;-73
2022/06/26 12:30:35;;;;;;;3.42;1.55;;;;;;;29.46;nan;100403.34;4951396;29;20062;-73
2022/06/26 12:33:04;;;;;;;3.53;1.70;;;;;;;29.57;nan;100409.03;4935499;29;20035;-73
2022/06/26 12:35:30;;;;;;;2.58;1.30;;;;;;;29.56;nan;100390.38;4953525;29;20034;-72
2022/06/26 12:37:56;;;;;;;2.47;1.70;;;;;;;29.73;nan;100400.84;4930072;29;20059;-73
2022/06/26 12:40:22;;;;;;;3.25;1.70;;;;;;;29.82;nan;100396.03;4952724;29;20420;-73
2022/06/26 12:42:48;;;;;;;2.17;1.60;;;;;;;29.75;nan;100433.09;4935369;29;20039;-73